createdAt,value
2019-03-03T00:00:06.854Z,99.90
2019-03-03T00:02:08.521Z,99.90
2019-03-03T00:04:10.805Z,99.90
2019-03-03T00:06:12.471Z,99.90
2019-03-03T00:08:14.452Z,99.90
2019-03-03T00:10:16.132Z,99.90
2019-03-03T00:12:17.794Z,99.90
2019-03-03T00:14:19.494Z,99.90
2019-03-03T00:16:21.155Z,99.90
2019-03-03T00:18:22.816Z,99.90
2019-03-03T00:20:24.494Z,99.90
2019-03-03T00:22:26.159Z,99.90
2019-03-03T00:24:27.901Z,99.90
2019-03-03T00:26:29.610Z,99.90
2019-03-03T00:28:31.285Z,99.90
2019-03-03T00:30:32.953Z,99.90
2019-03-03T00:32:34.601Z,99.90
2019-03-03T00:34:36.278Z,99.90
2019-03-03T00:36:56.154Z,99.90
2019-03-03T00:39:06.762Z,99.90
2019-03-03T00:41:26.416Z,99.90
2019-03-03T00:43:46.293Z,99.90
2019-03-03T00:46:00.512Z,99.90
2019-03-03T00:48:14.618Z,99.90
2019-03-03T00:50:19.969Z,99.90
2019-03-03T00:52:26.526Z,99.90
2019-03-03T00:54:55.157Z,99.90
2019-03-03T00:57:15.201Z,99.90
2019-03-03T00:59:32.231Z,99.90
2019-03-03T01:01:39.898Z,99.90
2019-03-03T01:03:58.472Z,99.90
2019-03-03T01:06:25.817Z,99.90
2019-03-03T01:08:37.989Z,99.90
2019-03-03T01:10:55.112Z,99.30
2019-03-03T01:13:16.465Z,99.90
2019-03-03T01:15:45.015Z,99.90
2019-03-03T01:18:24.538Z,99.90
2019-03-03T01:20:45.927Z,99.90
2019-03-03T01:23:07.273Z,99.90
2019-03-03T01:25:09.233Z,99.90
2019-03-03T01:27:10.914Z,99.90
2019-03-03T01:29:12.577Z,99.90
2019-03-03T01:31:14.250Z,99.90
2019-03-03T01:33:16.245Z,99.90
2019-03-03T01:35:17.917Z,99.90
2019-03-03T01:37:19.626Z,99.90
2019-03-03T01:39:21.553Z,99.90
2019-03-03T01:41:23.229Z,99.90
2019-03-03T01:43:24.913Z,99.90
2019-03-03T01:45:26.569Z,99.90
2019-03-03T01:47:28.245Z,99.90
2019-03-03T01:49:29.896Z,99.90
2019-03-03T01:51:31.605Z,99.90
2019-03-03T01:53:33.586Z,99.90
2019-03-03T01:55:35.249Z,99.40
2019-03-03T01:57:37.193Z,99.90
2019-03-03T01:59:38.856Z,99.90
2019-03-03T02:01:40.561Z,99.90
2019-03-03T02:03:42.225Z,99.90
2019-03-03T02:05:43.909Z,99.90
2019-03-03T02:07:45.874Z,99.90
2019-03-03T02:09:47.537Z,99.90
2019-03-03T02:11:49.214Z,99.90
2019-03-03T02:13:50.878Z,99.90
2019-03-03T02:15:52.543Z,99.90
2019-03-03T02:17:54.737Z,99.90
2019-03-03T02:19:56.389Z,99.90
2019-03-03T02:21:58.069Z,99.90
2019-03-03T02:23:59.981Z,99.90
2019-03-03T02:26:01.649Z,99.90
2019-03-03T02:28:03.350Z,99.90
2019-03-03T02:30:09.061Z,99.90
2019-03-03T02:32:10.838Z,99.90
2019-03-03T02:34:12.873Z,99.90
2019-03-03T02:36:14.525Z,99.90
2019-03-03T02:38:16.200Z,99.90
2019-03-03T02:40:18.189Z,99.90
2019-03-03T02:42:19.957Z,99.90
2019-03-03T02:44:21.872Z,99.90
2019-03-03T02:46:23.886Z,99.90
2019-03-03T02:48:25.883Z,99.90
2019-03-03T02:50:27.629Z,99.90
2019-03-03T02:52:29.546Z,99.90
2019-03-03T02:54:31.237Z,99.90
2019-03-03T02:56:33.205Z,99.90
2019-03-03T02:58:34.887Z,99.90
2019-03-03T03:00:40.845Z,99.90
2019-03-03T03:02:45.305Z,99.90
2019-03-03T03:04:46.971Z,99.90
2019-03-03T03:07:05.519Z,99.90
2019-03-03T03:09:28.387Z,99.90
2019-03-03T03:11:44.343Z,99.90
2019-03-03T03:13:57.172Z,99.90
2019-03-03T03:16:17.250Z,99.90
2019-03-03T03:18:29.046Z,99.90
2019-03-03T03:20:50.490Z,99.70
2019-03-03T03:23:18.491Z,99.70
2019-03-03T03:25:27.338Z,99.90
2019-03-03T03:27:48.821Z,99.90
2019-03-03T03:30:03.313Z,99.80
2019-03-03T03:32:15.030Z,99.30
2019-03-03T03:34:21.983Z,99.00
2019-03-03T03:36:30.534Z,99.40
2019-03-03T03:38:37.569Z,98.90
2019-03-03T03:40:53.546Z,97.90
2019-03-03T03:43:00.091Z,97.70
2019-03-03T03:45:30.442Z,96.50
2019-03-03T03:47:55.130Z,95.50
2019-03-03T03:50:04.167Z,97.00
2019-03-03T03:52:37.761Z,96.80
2019-03-03T03:54:57.573Z,95.50
2019-03-03T03:57:17.654Z,95.90
2019-03-03T03:59:24.525Z,95.80
2019-03-03T04:01:51.478Z,96.00
2019-03-03T04:04:11.950Z,95.80
2019-03-03T04:06:21.927Z,95.80
2019-03-03T04:08:31.226Z,95.30
2019-03-03T04:10:41.808Z,95.70
2019-03-03T04:12:53.050Z,95.10
2019-03-03T04:15:03.302Z,94.70
2019-03-03T04:17:33.426Z,93.50
2019-03-03T04:19:53.615Z,94.60
2019-03-03T04:22:08.775Z,95.10
2019-03-03T04:24:20.390Z,93.40
2019-03-03T04:26:41.757Z,94.40
2019-03-03T04:28:51.110Z,95.60
2019-03-03T04:31:02.301Z,95.40
2019-03-03T04:33:26.990Z,94.60
2019-03-03T04:35:47.205Z,94.20
2019-03-03T04:38:07.367Z,94.10
2019-03-03T04:40:13.861Z,93.50
2019-03-03T04:42:31.229Z,91.80
2019-03-03T04:44:41.513Z,92.60
2019-03-03T04:47:08.027Z,93.00
2019-03-03T04:49:24.321Z,92.80
2019-03-03T04:51:35.476Z,92.40
2019-03-03T04:54:00.414Z,92.50
2019-03-03T04:56:15.958Z,91.60
2019-03-03T04:58:38.913Z,91.00
2019-03-03T05:01:09.053Z,91.00
2019-03-03T05:03:26.244Z,90.40
2019-03-03T05:05:33.958Z,91.50
2019-03-03T05:07:59.193Z,91.00
2019-03-03T05:10:06.634Z,91.00
2019-03-03T05:12:26.718Z,90.90
2019-03-03T05:14:34.057Z,91.40
2019-03-03T05:16:55.405Z,90.70
2019-03-03T05:19:01.362Z,92.00
2019-03-03T05:21:03.034Z,92.60
2019-03-03T05:23:04.697Z,91.70
2019-03-03T05:25:06.402Z,91.90
2019-03-03T05:27:08.149Z,91.80
2019-03-03T05:29:09.813Z,92.00
2019-03-03T05:31:11.481Z,91.00
2019-03-03T05:33:13.145Z,91.00
2019-03-03T05:35:15.175Z,92.80
2019-03-03T05:37:16.853Z,93.00
2019-03-03T05:39:18.519Z,92.10
2019-03-03T05:41:20.216Z,91.90
2019-03-03T05:43:21.977Z,92.20
2019-03-03T05:45:23.653Z,91.90
2019-03-03T05:47:25.325Z,92.70
2019-03-03T05:49:26.989Z,93.30
2019-03-03T05:51:28.669Z,92.80
2019-03-03T05:53:30.354Z,91.70
2019-03-03T05:55:32.353Z,92.60
2019-03-03T05:57:34.027Z,93.10
2019-03-03T05:59:35.693Z,92.70
2019-03-03T06:01:37.364Z,93.50
2019-03-03T06:03:39.057Z,92.30
2019-03-03T06:05:40.722Z,92.10
2019-03-03T06:07:42.408Z,91.70
2019-03-03T06:09:44.097Z,91.80
2019-03-03T06:11:45.766Z,92.80
2019-03-03T06:13:47.429Z,92.20
2019-03-03T06:15:49.097Z,92.30
2019-03-03T06:17:51.001Z,92.30
2019-03-03T06:19:52.665Z,93.00
2019-03-03T06:21:54.641Z,93.70
2019-03-03T06:23:56.425Z,93.10
2019-03-03T06:25:58.097Z,92.60
2019-03-03T06:27:59.749Z,92.50
2019-03-03T06:30:01.426Z,93.00
2019-03-03T06:32:03.096Z,93.00
2019-03-03T06:34:04.761Z,92.90
2019-03-03T06:36:06.441Z,93.60
2019-03-03T06:38:08.105Z,93.10
2019-03-03T06:40:09.881Z,91.60
2019-03-03T06:42:11.854Z,92.80
2019-03-03T06:44:13.798Z,93.70
2019-03-03T06:46:15.573Z,93.80
2019-03-03T06:48:17.242Z,95.40
2019-03-03T06:50:19.179Z,96.50
2019-03-03T06:52:20.878Z,97.20
2019-03-03T06:54:22.533Z,99.90
2019-03-03T06:56:24.237Z,99.90
2019-03-03T06:58:25.918Z,99.90
2019-03-03T07:00:27.573Z,99.90
2019-03-03T07:02:29.250Z,99.90
2019-03-03T07:04:30.917Z,99.90
2019-03-03T07:06:32.585Z,99.90
2019-03-03T07:08:34.253Z,99.90
2019-03-03T07:10:35.952Z,99.90
2019-03-03T07:12:37.634Z,99.90
2019-03-03T07:14:39.292Z,99.90
2019-03-03T07:16:40.958Z,99.90
2019-03-03T07:18:42.653Z,99.90
2019-03-03T07:20:44.317Z,99.90
2019-03-03T07:22:46.000Z,99.90
2019-03-03T07:24:47.685Z,99.90
2019-03-03T07:26:49.626Z,99.90
2019-03-03T07:28:51.309Z,99.90
2019-03-03T07:30:52.969Z,99.90
2019-03-03T07:33:11.685Z,99.90
2019-03-03T07:35:13.363Z,99.90
2019-03-03T07:37:15.033Z,99.90
2019-03-03T07:39:17.502Z,99.90
2019-03-03T07:41:19.184Z,99.90
2019-03-03T07:43:20.853Z,99.90
2019-03-03T07:45:22.556Z,99.90
2019-03-03T07:47:24.237Z,99.90
2019-03-03T07:49:25.897Z,99.90
2019-03-03T07:51:27.565Z,99.90
2019-03-03T07:53:29.545Z,99.90
2019-03-03T07:55:31.205Z,99.90
2019-03-03T07:57:33.157Z,99.90
2019-03-03T07:59:34.818Z,99.90
2019-03-03T08:01:36.481Z,99.90
2019-03-03T08:03:38.161Z,99.90
2019-03-03T08:05:39.825Z,99.90
2019-03-03T08:07:41.525Z,99.90
2019-03-03T08:09:43.186Z,99.90
2019-03-03T08:11:44.850Z,99.90
2019-03-03T08:13:46.525Z,99.90
2019-03-03T08:15:48.182Z,99.90
2019-03-03T08:17:50.169Z,99.90
2019-03-03T08:19:51.861Z,99.90
2019-03-03T08:21:53.517Z,99.90
2019-03-03T08:23:55.176Z,99.90
2019-03-03T08:25:56.869Z,99.90
2019-03-03T08:27:58.541Z,99.90
2019-03-03T08:30:00.302Z,99.90
2019-03-03T08:32:01.966Z,99.90
2019-03-03T08:34:04.006Z,99.90
2019-03-03T08:36:05.674Z,99.90
2019-03-03T08:38:07.395Z,99.90
2019-03-03T08:40:09.178Z,99.90
2019-03-03T08:42:30.577Z,99.90
2019-03-03T08:44:43.613Z,99.90
2019-03-03T08:47:07.908Z,99.90
2019-03-03T08:49:14.353Z,99.90
2019-03-03T08:51:22.034Z,99.90
2019-03-03T08:53:49.276Z,99.90
2019-03-03T08:56:13.406Z,99.90
2019-03-03T08:58:37.710Z,99.90
2019-03-03T09:00:50.149Z,99.90
2019-03-03T09:02:58.201Z,99.90
2019-03-03T09:05:19.054Z,99.90
2019-03-03T09:07:27.466Z,99.90
2019-03-03T09:09:51.470Z,99.90
2019-03-03T09:12:18.730Z,99.90
2019-03-03T09:14:40.115Z,99.90
2019-03-03T09:17:10.334Z,99.90
2019-03-03T09:19:22.191Z,99.90
2019-03-03T09:21:58.693Z,99.90
2019-03-03T09:24:12.637Z,99.90
2019-03-03T09:26:32.382Z,99.90
2019-03-03T09:28:51.678Z,99.90
2019-03-03T09:31:05.302Z,99.90
2019-03-03T09:33:36.854Z,99.90
2019-03-03T09:35:50.623Z,99.90
2019-03-03T09:37:59.714Z,99.90
2019-03-03T09:40:21.657Z,99.90
2019-03-03T09:42:45.006Z,99.90
2019-03-03T09:45:01.509Z,99.90
2019-03-03T09:47:20.973Z,99.90
2019-03-03T09:49:29.006Z,99.90
2019-03-03T09:51:59.224Z,99.90
2019-03-03T09:54:20.926Z,99.90
2019-03-03T09:56:45.145Z,99.90
2019-03-03T09:58:59.033Z,99.90
2019-03-03T10:01:23.337Z,99.90
2019-03-03T10:03:32.655Z,99.90
2019-03-03T10:05:59.797Z,99.90
2019-03-03T10:08:24.087Z,99.90
2019-03-03T10:10:35.047Z,99.90
2019-03-03T10:12:47.965Z,99.90
2019-03-03T10:15:07.797Z,99.90
2019-03-03T10:17:24.147Z,99.90
2019-03-03T10:19:44.065Z,99.90
2019-03-03T10:22:07.005Z,99.90
2019-03-03T10:24:31.193Z,99.90
2019-03-03T10:26:55.170Z,99.90
2019-03-03T10:29:08.046Z,99.90
2019-03-03T10:31:20.040Z,99.90
2019-03-03T10:33:36.857Z,99.90
2019-03-03T10:35:53.703Z,99.90
2019-03-03T10:38:07.705Z,99.90
2019-03-03T10:40:34.716Z,99.90
2019-03-03T10:42:42.038Z,99.90
2019-03-03T10:44:56.782Z,99.90
2019-03-03T10:47:14.005Z,99.90
2019-03-03T10:49:31.753Z,99.90
2019-03-03T10:51:42.017Z,99.90
2019-03-03T10:54:15.484Z,99.90
2019-03-03T10:56:35.249Z,99.90
2019-03-03T10:59:01.581Z,99.90
2019-03-03T11:01:31.801Z,99.90
2019-03-03T11:03:53.145Z,99.90
2019-03-03T11:06:01.965Z,99.90
2019-03-03T11:08:18.153Z,99.90
2019-03-03T11:10:38.322Z,99.90
2019-03-03T11:12:53.118Z,99.90
2019-03-03T11:15:01.387Z,99.90
2019-03-03T11:17:17.685Z,99.90
2019-03-03T11:19:22.102Z,99.90
2019-03-03T11:21:44.957Z,99.90
2019-03-03T11:23:52.661Z,99.90
2019-03-03T11:26:07.824Z,99.90
2019-03-03T11:28:27.933Z,99.90
2019-03-03T11:30:39.484Z,99.90
2019-03-03T11:32:59.718Z,99.90
2019-03-03T11:35:21.082Z,99.90
2019-03-03T11:37:42.658Z,99.90
2019-03-03T11:40:00.364Z,99.90
2019-03-03T11:42:24.449Z,99.90
2019-03-03T11:44:51.486Z,99.90
2019-03-03T11:47:11.246Z,99.90
2019-03-03T11:49:41.642Z,99.90
2019-03-03T11:51:49.153Z,99.90
2019-03-03T11:54:00.637Z,99.90
2019-03-03T11:56:08.661Z,99.90
2019-03-03T11:58:23.457Z,99.90
2019-03-03T12:00:35.193Z,99.90
2019-03-03T12:03:08.553Z,99.90
2019-03-03T12:05:16.828Z,99.90
2019-03-03T12:07:32.772Z,99.90
2019-03-03T12:09:46.910Z,99.90
2019-03-03T12:12:06.781Z,99.90
2019-03-03T12:14:30.769Z,99.90
2019-03-03T12:16:45.541Z,99.90
2019-03-03T12:19:05.431Z,99.90
2019-03-03T12:21:13.600Z,99.90
2019-03-03T12:23:42.651Z,99.90
2019-03-03T12:26:09.130Z,99.90
2019-03-03T12:28:42.381Z,99.90
2019-03-03T12:30:51.105Z,99.90
2019-03-03T12:33:11.155Z,99.90
2019-03-03T12:35:44.637Z,99.90
2019-03-03T12:38:04.484Z,99.90
2019-03-03T12:40:42.162Z,99.90
2019-03-03T12:42:53.333Z,99.90
2019-03-03T12:45:20.398Z,99.90
2019-03-03T12:47:29.449Z,99.90
2019-03-03T12:49:53.661Z,99.90
2019-03-03T12:52:11.051Z,99.90
2019-03-03T12:54:31.441Z,99.90
2019-03-03T12:56:51.845Z,99.90
2019-03-03T12:59:31.330Z,99.90
2019-03-03T13:01:51.960Z,99.90
2019-03-03T13:04:15.042Z,99.90
2019-03-03T13:06:39.426Z,99.90
2019-03-03T13:08:59.541Z,99.90
2019-03-03T13:11:18.854Z,99.90
2019-03-03T13:13:47.414Z,99.90
2019-03-03T13:16:14.776Z,99.90
2019-03-03T13:18:22.437Z,99.90
2019-03-03T13:20:33.873Z,99.90
2019-03-03T13:22:53.990Z,99.90
2019-03-03T13:25:09.329Z,99.90
2019-03-03T13:27:36.161Z,99.90
2019-03-03T13:29:58.705Z,99.90
2019-03-03T13:32:10.210Z,99.90
2019-03-03T13:34:19.230Z,99.90
2019-03-03T13:36:58.781Z,99.90
2019-03-03T13:39:15.977Z,99.90
2019-03-03T13:41:27.369Z,99.90
2019-03-03T13:43:29.032Z,99.90
2019-03-03T13:45:32.047Z,99.90
2019-03-03T13:47:33.701Z,99.90
2019-03-03T13:49:35.377Z,99.90
2019-03-03T13:51:37.317Z,99.90
2019-03-03T13:53:38.981Z,99.90
2019-03-03T13:55:40.656Z,99.90
2019-03-03T13:57:42.362Z,99.90
2019-03-03T13:59:44.606Z,99.90
2019-03-03T14:01:46.273Z,99.90
2019-03-03T14:03:47.965Z,99.90
2019-03-03T14:05:49.641Z,99.90
2019-03-03T14:07:51.313Z,99.90
2019-03-03T14:09:52.994Z,99.90
2019-03-03T14:11:54.681Z,99.90
2019-03-03T14:13:56.341Z,99.90
2019-03-03T14:15:58.014Z,99.90
2019-03-03T14:17:59.686Z,99.90
2019-03-03T14:20:01.397Z,99.90
2019-03-03T14:22:03.155Z,99.90
2019-03-03T14:24:05.045Z,99.90
2019-03-03T14:26:06.958Z,99.90
2019-03-03T14:28:08.625Z,99.90
2019-03-03T14:30:11.936Z,99.90
2019-03-03T14:32:13.894Z,99.90
2019-03-03T14:34:16.233Z,99.90
2019-03-03T14:36:17.926Z,99.90
2019-03-03T14:38:19.612Z,99.90
2019-03-03T14:40:21.301Z,99.90
2019-03-03T14:42:22.989Z,99.90
2019-03-03T14:44:24.673Z,99.90
2019-03-03T14:46:26.342Z,99.90
2019-03-03T14:48:28.006Z,99.90
2019-03-03T14:50:29.693Z,99.90
2019-03-03T14:52:31.729Z,99.90
2019-03-03T14:54:33.386Z,99.90
2019-03-03T14:56:35.056Z,99.90
2019-03-03T14:58:36.723Z,99.90
2019-03-03T15:00:38.397Z,99.90
2019-03-03T15:02:40.076Z,99.90
2019-03-03T15:04:41.738Z,99.90
2019-03-03T15:06:43.413Z,99.90
2019-03-03T15:08:45.097Z,99.90
2019-03-03T15:10:46.770Z,99.90
2019-03-03T15:12:48.445Z,99.90
2019-03-03T15:14:50.136Z,99.90
2019-03-03T15:16:52.158Z,99.90
2019-03-03T15:18:53.842Z,99.90
2019-03-03T15:20:55.549Z,99.90
2019-03-03T15:22:57.214Z,99.90
2019-03-03T15:24:58.878Z,99.90
2019-03-03T15:27:00.581Z,99.90
2019-03-03T15:29:02.579Z,99.90
2019-03-03T15:31:04.261Z,99.90
2019-03-03T15:33:06.644Z,99.90
2019-03-03T15:35:08.383Z,99.90
2019-03-03T15:37:13.081Z,99.90
2019-03-03T15:39:14.765Z,99.90
2019-03-03T15:41:16.433Z,99.90
2019-03-03T15:43:18.393Z,99.90
2019-03-03T15:45:20.172Z,99.90
2019-03-03T15:47:21.877Z,99.90
2019-03-03T15:49:23.801Z,99.90
2019-03-03T15:51:25.478Z,99.90
2019-03-03T15:53:27.146Z,99.90
2019-03-03T15:55:28.912Z,99.90
2019-03-03T15:57:30.589Z,99.90
2019-03-03T15:59:32.581Z,99.90
2019-03-03T16:01:34.257Z,99.90
2019-03-03T16:03:35.913Z,99.90
2019-03-03T16:05:37.582Z,99.90
2019-03-03T16:07:39.315Z,99.90
2019-03-03T16:09:40.989Z,99.90
2019-03-03T16:11:43.057Z,99.90
2019-03-03T16:13:44.749Z,99.90
2019-03-03T16:15:46.483Z,99.90
2019-03-03T16:17:48.222Z,99.90
2019-03-03T16:19:50.126Z,99.90
2019-03-03T16:21:51.805Z,99.90
2019-03-03T16:23:53.493Z,99.90
2019-03-03T16:25:55.506Z,99.90
2019-03-03T16:27:57.805Z,99.90
2019-03-03T16:29:59.642Z,99.90
2019-03-03T16:32:01.418Z,99.90
2019-03-03T16:34:03.274Z,99.90
2019-03-03T16:36:05.173Z,99.90
2019-03-03T16:38:06.938Z,99.90
2019-03-03T16:40:10.854Z,99.90
2019-03-03T16:42:12.533Z,99.90
2019-03-03T16:44:14.221Z,99.90
2019-03-03T16:46:15.894Z,99.90
2019-03-03T16:48:17.593Z,99.90
2019-03-03T16:50:19.618Z,99.90
2019-03-03T16:52:21.299Z,99.90
2019-03-03T16:54:22.978Z,99.90
2019-03-03T16:56:24.646Z,99.90
2019-03-03T16:58:26.321Z,99.90
2019-03-03T17:00:27.998Z,99.90
2019-03-03T17:02:29.674Z,99.90
2019-03-03T17:04:31.342Z,99.90
2019-03-03T17:06:33.038Z,99.90
2019-03-03T17:08:34.710Z,99.90
2019-03-03T17:10:36.377Z,99.90
2019-03-03T17:12:38.129Z,99.90
2019-03-03T17:14:39.802Z,99.90
2019-03-03T17:16:41.479Z,99.90
2019-03-03T17:18:43.150Z,99.90
2019-03-03T17:20:44.845Z,99.90
2019-03-03T17:22:46.861Z,99.90
2019-03-03T17:24:48.521Z,99.90
2019-03-03T17:26:50.441Z,99.90
2019-03-03T17:28:52.840Z,99.90
2019-03-03T17:30:54.906Z,99.90
2019-03-03T17:32:56.587Z,99.90
2019-03-03T17:34:58.574Z,99.90
2019-03-03T17:37:00.250Z,99.90
2019-03-03T17:39:02.242Z,99.90
2019-03-03T17:41:03.938Z,99.90
2019-03-03T17:43:05.609Z,99.90
2019-03-03T17:45:09.749Z,99.90
2019-03-03T17:47:11.415Z,99.90
2019-03-03T17:49:13.360Z,99.90
2019-03-03T17:51:15.026Z,99.90
2019-03-03T17:53:16.733Z,99.90
2019-03-03T17:55:18.402Z,99.90
2019-03-03T17:57:20.076Z,99.90
2019-03-03T17:59:21.782Z,99.90
2019-03-03T18:01:23.547Z,99.90
2019-03-03T18:03:25.226Z,99.90
2019-03-03T18:05:27.017Z,99.90
2019-03-03T18:07:28.682Z,99.90
2019-03-03T18:09:30.667Z,99.90
2019-03-03T18:11:32.327Z,99.90
2019-03-03T18:13:34.001Z,99.90
2019-03-03T18:15:35.670Z,99.90
2019-03-03T18:17:37.385Z,99.90
2019-03-03T18:19:39.347Z,99.90
2019-03-03T18:21:41.018Z,99.90
2019-03-03T18:23:42.695Z,99.90
2019-03-03T18:25:44.362Z,99.90
2019-03-03T18:27:46.031Z,99.90
2019-03-03T18:29:54.029Z,99.90
2019-03-03T18:31:55.862Z,99.90
2019-03-03T18:33:57.570Z,99.90
2019-03-03T18:35:59.246Z,99.90
2019-03-03T18:38:01.289Z,99.90
2019-03-03T18:40:04.076Z,99.90
2019-03-03T18:42:05.742Z,99.90
2019-03-03T18:44:07.421Z,99.90
2019-03-03T18:46:09.115Z,99.90
2019-03-03T18:48:11.069Z,99.90
2019-03-03T18:50:14.192Z,99.90
2019-03-03T18:52:15.867Z,99.90
2019-03-03T18:54:17.570Z,99.90
2019-03-03T18:56:19.229Z,99.90
2019-03-03T18:58:20.917Z,99.90
2019-03-03T19:00:23.380Z,99.90
2019-03-03T19:02:25.051Z,99.90
2019-03-03T19:04:26.717Z,99.90
2019-03-03T19:06:28.392Z,99.90
2019-03-03T19:08:30.491Z,99.90
2019-03-03T19:10:32.483Z,99.90
2019-03-03T19:12:34.493Z,99.90
2019-03-03T19:14:36.454Z,99.90
2019-03-03T19:16:38.122Z,99.90
2019-03-03T19:18:46.448Z,99.90
2019-03-03T19:20:47.946Z,99.90
2019-03-03T19:22:49.765Z,99.90
2019-03-03T19:24:51.465Z,99.90
2019-03-03T19:26:53.131Z,99.90
2019-03-03T19:28:54.810Z,99.90
2019-03-03T19:30:56.497Z,99.90
2019-03-03T19:33:01.765Z,99.90
2019-03-03T19:35:04.592Z,99.90
2019-03-03T19:37:06.282Z,99.90
2019-03-03T19:39:07.961Z,99.90
2019-03-03T19:41:09.626Z,99.90
2019-03-03T19:43:11.534Z,99.90
2019-03-03T19:45:16.402Z,99.90
2019-03-03T19:47:18.327Z,99.90
2019-03-03T19:49:20.298Z,99.90
2019-03-03T19:51:21.963Z,99.90
2019-03-03T19:53:23.629Z,99.70
2019-03-03T19:55:25.319Z,99.90
2019-03-03T19:57:26.986Z,99.60
2019-03-03T19:59:28.657Z,99.20
2019-03-03T20:01:30.342Z,99.10
2019-03-03T20:03:32.033Z,99.90
2019-03-03T20:05:33.733Z,99.70
2019-03-03T20:07:35.398Z,99.50
2019-03-03T20:09:37.102Z,98.20
2019-03-03T20:11:38.796Z,99.40
2019-03-03T20:13:40.472Z,99.00
2019-03-03T20:15:42.477Z,97.70
2019-03-03T20:17:44.226Z,97.70
2019-03-03T20:19:45.901Z,96.60
2019-03-03T20:21:47.842Z,97.70
2019-03-03T20:23:49.513Z,98.90
2019-03-03T20:25:51.189Z,97.90
2019-03-03T20:27:52.867Z,97.60
2019-03-03T20:29:54.536Z,97.50
2019-03-03T20:31:56.558Z,96.80
2019-03-03T20:33:58.721Z,98.30
2019-03-03T20:36:00.633Z,96.50
2019-03-03T20:38:02.326Z,95.50
2019-03-03T20:40:05.474Z,98.20
2019-03-03T20:42:07.133Z,96.60
2019-03-03T20:44:08.801Z,97.10
2019-03-03T20:46:10.477Z,98.60
2019-03-03T20:48:12.150Z,97.60
2019-03-03T20:50:15.978Z,98.60
2019-03-03T20:52:17.669Z,96.70
2019-03-03T20:54:19.655Z,96.70
2019-03-03T20:56:21.333Z,95.60
2019-03-03T21:01:39.712Z,96.70
2019-03-03T21:03:41.390Z,96.40
2019-03-03T21:05:43.066Z,96.50
2019-03-03T21:07:51.372Z,95.40
2019-03-03T21:09:48.306Z,97.50
2019-03-03T21:11:49.983Z,96.80
2019-03-03T21:13:51.654Z,98.20
2019-03-03T21:15:58.053Z,97.30
2019-03-03T21:17:59.932Z,97.20
2019-03-03T21:20:01.631Z,95.50
2019-03-03T21:22:03.326Z,96.80
2019-03-03T21:24:05.251Z,93.80
2019-03-03T21:26:07.210Z,96.50
2019-03-03T21:28:08.877Z,94.90
2019-03-03T21:30:12.796Z,95.70
2019-03-03T21:32:14.474Z,96.80
2019-03-03T21:34:16.138Z,94.80
2019-03-03T21:36:17.834Z,97.00
2019-03-03T21:38:19.517Z,93.90
2019-03-03T21:40:21.273Z,96.50
2019-03-03T21:42:22.953Z,94.20
2019-03-03T21:44:24.621Z,93.70
2019-03-03T21:46:26.397Z,93.60
2019-03-03T21:48:28.070Z,93.60
2019-03-03T21:50:29.751Z,94.30
2019-03-03T21:52:31.431Z,93.30
2019-03-03T21:54:33.103Z,93.70
2019-03-03T21:56:35.581Z,93.10
2019-03-03T21:58:37.485Z,93.20
2019-03-03T22:00:39.190Z,94.60
2019-03-03T22:02:40.879Z,93.70
2019-03-03T22:04:42.782Z,94.60
2019-03-03T22:06:44.457Z,94.60
2019-03-03T22:08:46.401Z,92.80
2019-03-03T22:10:48.065Z,96.10
2019-03-03T22:12:49.741Z,96.50
2019-03-03T22:14:51.415Z,99.20
2019-03-03T22:16:53.093Z,97.10
2019-03-03T22:18:54.766Z,97.00
2019-03-03T22:20:56.439Z,97.10
2019-03-03T22:22:58.101Z,96.70
2019-03-03T22:24:59.769Z,96.90
2019-03-03T22:27:01.445Z,97.00
2019-03-03T22:29:03.129Z,97.70
2019-03-03T22:31:04.798Z,98.60
2019-03-03T22:33:06.486Z,97.40
2019-03-03T22:35:08.170Z,98.00
2019-03-03T22:37:10.089Z,96.30
2019-03-03T22:39:11.766Z,97.80
2019-03-03T22:41:13.432Z,96.80
2019-03-03T22:43:15.105Z,95.80
2019-03-03T22:45:16.818Z,96.60
2019-03-03T22:47:18.502Z,97.50
2019-03-03T22:49:20.165Z,98.10
2019-03-03T22:51:21.826Z,98.70
2019-03-03T22:53:23.506Z,96.80
2019-03-03T22:55:25.173Z,98.10
2019-03-03T22:57:26.885Z,97.70
2019-03-03T22:59:28.619Z,96.90
2019-03-03T23:01:37.062Z,97.20
2019-03-03T23:03:49.170Z,98.20
2019-03-03T23:06:16.577Z,95.70
2019-03-03T23:08:26.418Z,95.10
2019-03-03T23:10:50.664Z,97.20
2019-03-03T23:13:04.270Z,95.10
2019-03-03T23:15:43.690Z,96.30
2019-03-03T23:18:36.294Z,96.70
2019-03-03T23:20:50.010Z,97.20
2019-03-03T23:23:33.398Z,97.10
2019-03-03T23:25:50.321Z,97.50
2019-03-03T23:27:52.006Z,96.90
2019-03-03T23:29:54.011Z,96.80
2019-03-03T23:31:55.677Z,96.00
2019-03-03T23:33:57.354Z,96.70
2019-03-03T23:35:59.041Z,96.90
2019-03-03T23:38:00.714Z,97.60
2019-03-03T23:40:02.403Z,97.10
2019-03-03T23:42:04.061Z,97.70
2019-03-03T23:44:06.537Z,97.20
2019-03-03T23:46:08.208Z,97.90
2019-03-03T23:48:09.885Z,98.20
2019-03-03T23:50:11.558Z,98.40
2019-03-03T23:52:13.227Z,98.80
2019-03-03T23:54:14.901Z,99.60
2019-03-03T23:56:16.561Z,99.30
2019-03-03T23:58:18.241Z,99.60
